createdAt,value
2019-02-20T00:02:08.627Z,92.27
2019-02-20T00:04:40.254Z,295.87
2019-02-20T00:07:11.938Z,171.50
2019-02-20T00:09:43.611Z,94.47
2019-02-20T00:12:16.644Z,74.90
2019-02-20T00:14:48.273Z,84.23
2019-02-20T00:17:20.064Z,68.23
2019-02-20T00:19:54.127Z,69.60
2019-02-20T00:22:25.736Z,73.57
2019-02-20T00:24:57.482Z,73.07
2019-02-20T00:27:29.000Z,71.37
2019-02-20T00:30:00.610Z,75.00
2019-02-20T00:32:32.219Z,77.00
2019-02-20T00:35:03.842Z,75.37
2019-02-20T00:37:35.637Z,80.87
2019-02-20T00:40:07.706Z,84.17
2019-02-20T00:42:39.444Z,98.10
2019-02-20T00:45:38.855Z,81.37
2019-02-20T00:48:23.554Z,87.73
2019-02-20T00:51:01.507Z,77.73
2019-02-20T00:53:37.785Z,78.63
2019-02-20T00:56:09.537Z,72.60
2019-02-20T00:58:41.055Z,71.37
2019-02-20T01:01:12.705Z,69.87
2019-02-20T01:03:44.309Z,76.13
2019-02-20T01:06:16.051Z,68.17
2019-02-20T01:08:50.617Z,75.53
2019-02-20T01:11:22.470Z,62.47
2019-02-20T01:13:54.010Z,69.37
2019-02-20T01:16:25.605Z,70.13
2019-02-20T01:18:57.145Z,67.07
2019-02-20T01:21:29.149Z,61.40
2019-02-20T01:24:00.688Z,69.43
2019-02-20T01:26:32.268Z,63.00
2019-02-20T01:29:03.831Z,69.47
2019-02-20T01:31:35.745Z,67.67
2019-02-20T01:34:08.958Z,64.80
2019-02-20T01:36:40.563Z,64.70
2019-02-20T01:39:12.172Z,58.67
2019-02-20T01:41:43.784Z,58.03
2019-02-20T01:44:15.540Z,58.33
2019-02-20T01:46:47.155Z,50.73
2019-02-20T01:49:18.822Z,50.13
2019-02-20T01:51:50.455Z,51.10
2019-02-20T01:54:22.121Z,45.27
2019-02-20T01:56:53.707Z,50.67
2019-02-20T01:59:25.251Z,45.63
2019-02-20T02:01:58.354Z,49.33
2019-02-20T02:04:30.004Z,49.63
2019-02-20T02:07:01.594Z,46.47
2019-02-20T02:09:33.210Z,161.90
2019-02-20T02:12:04.903Z,41.67
2019-02-20T02:14:36.458Z,56.57
2019-02-20T02:17:08.108Z,49.63
2019-02-20T02:19:39.718Z,48.63
2019-02-20T02:22:11.279Z,54.33
2019-02-20T02:24:42.688Z,45.80
2019-02-20T02:27:14.493Z,55.67
2019-02-20T02:29:46.152Z,54.13
2019-02-20T02:32:17.776Z,51.67
2019-02-20T02:34:49.419Z,52.50
2019-02-20T02:37:21.072Z,50.77
2019-02-20T02:39:52.767Z,52.77
2019-02-20T02:42:24.444Z,52.63
2019-02-20T02:44:56.178Z,50.00
2019-02-20T02:47:27.732Z,57.03
2019-02-20T02:49:59.169Z,57.23
2019-02-20T02:52:30.780Z,50.50
2019-02-20T02:55:02.411Z,57.83
2019-02-20T02:57:34.675Z,50.00
2019-02-20T03:00:07.009Z,51.47
2019-02-20T03:02:42.689Z,53.70
2019-02-20T03:05:14.383Z,52.43
2019-02-20T03:07:46.031Z,51.43
2019-02-20T03:10:17.629Z,50.83
2019-02-20T03:12:49.445Z,61.03
2019-02-20T03:15:21.171Z,57.87
2019-02-20T03:17:52.765Z,57.60
2019-02-20T03:20:24.365Z,58.33
2019-02-20T03:22:56.074Z,53.87
2019-02-20T03:25:28.957Z,52.13
2019-02-20T03:28:00.540Z,50.00
2019-02-20T03:30:32.178Z,54.43
2019-02-20T03:33:03.906Z,54.13
2019-02-20T03:35:35.647Z,51.47
2019-02-20T03:38:07.205Z,53.97
2019-02-20T03:40:38.892Z,51.43
2019-02-20T03:43:11.728Z,57.27
2019-02-20T03:45:43.197Z,56.33
2019-02-20T03:48:14.771Z,53.70
2019-02-20T03:50:46.448Z,48.87
2019-02-20T03:53:18.081Z,48.03
2019-02-20T03:55:49.852Z,45.73
2019-02-20T03:58:21.317Z,47.63
2019-02-20T04:00:53.147Z,48.10
2019-02-20T04:03:24.670Z,50.37
2019-02-20T04:05:56.373Z,48.67
2019-02-20T04:08:29.142Z,50.87
2019-02-20T04:11:00.768Z,46.77
2019-02-20T04:13:32.466Z,58.47
2019-02-20T04:16:04.119Z,51.67
2019-02-20T04:18:35.691Z,58.70
2019-02-20T04:21:10.454Z,50.17
2019-02-20T04:23:44.263Z,46.73
2019-02-20T04:26:15.725Z,54.10
2019-02-20T04:28:47.303Z,46.87
2019-02-20T04:31:18.880Z,49.27
2019-02-20T04:33:50.494Z,48.03
2019-02-20T04:36:21.987Z,46.17
2019-02-20T04:38:53.686Z,45.90
2019-02-20T04:41:25.327Z,45.47
2019-02-20T04:43:56.979Z,45.87
2019-02-20T04:46:28.746Z,46.67
2019-02-20T04:49:00.388Z,46.33
2019-02-20T04:51:31.958Z,55.90
2019-02-20T04:54:12.878Z,55.83
2019-02-20T04:56:39.869Z,54.20
2019-02-20T04:59:14.130Z,49.07
2019-02-20T05:01:46.825Z,50.27
2019-02-20T05:04:18.389Z,58.67
2019-02-20T05:06:49.964Z,56.80
2019-02-20T05:09:21.561Z,56.67
2019-02-20T05:11:53.223Z,53.80
2019-02-20T05:14:24.824Z,59.03
2019-02-20T05:16:56.417Z,62.67
2019-02-20T05:19:27.970Z,63.20
2019-02-20T05:21:59.547Z,57.47
2019-02-20T05:24:31.118Z,54.53
2019-02-20T05:27:03.958Z,63.47
2019-02-20T05:29:35.638Z,58.23
2019-02-20T05:32:10.279Z,53.40
2019-02-20T05:34:41.864Z,51.97
2019-02-20T05:37:13.575Z,51.20
2019-02-20T05:39:45.505Z,51.80
2019-02-20T05:42:17.836Z,50.57
2019-02-20T05:44:49.548Z,57.67
2019-02-20T05:47:21.200Z,73.50
2019-02-20T05:49:54.375Z,52.33
2019-02-20T05:52:25.969Z,57.10
2019-02-20T05:54:57.453Z,130.43
2019-02-20T05:57:29.045Z,64.73
2019-02-20T06:00:00.636Z,55.33
2019-02-20T06:02:32.451Z,55.90
2019-02-20T06:05:04.032Z,52.13
2019-02-20T06:07:35.576Z,49.37
2019-02-20T06:10:07.759Z,53.63
2019-02-20T06:12:39.404Z,48.10
2019-02-20T06:15:11.356Z,48.17
2019-02-20T06:17:45.124Z,58.67
2019-02-20T06:20:16.843Z,53.20
2019-02-20T06:22:48.317Z,52.93
2019-02-20T06:25:19.904Z,50.93
2019-02-20T06:27:51.502Z,52.73
2019-02-20T06:30:23.194Z,55.27
2019-02-20T06:32:54.753Z,57.93
2019-02-20T06:35:26.283Z,54.90
2019-02-20T06:37:57.814Z,51.43
2019-02-20T06:40:29.366Z,46.17
2019-02-20T06:43:01.081Z,51.57
2019-02-20T06:45:32.770Z,56.10
2019-02-20T06:48:04.499Z,56.17
2019-02-20T06:50:40.271Z,48.20
2019-02-20T06:53:11.951Z,45.17
2019-02-20T06:55:43.587Z,50.03
2019-02-20T06:58:15.189Z,50.20
2019-02-20T07:00:46.852Z,48.07
2019-02-20T07:03:18.390Z,44.97
2019-02-20T07:06:15.412Z,43.50
2019-02-20T07:09:45.589Z,38.70
2019-02-20T07:12:23.204Z,33.93
2019-02-20T07:15:15.742Z,36.00
2019-02-20T07:18:30.378Z,34.90
2019-02-20T07:21:31.731Z,34.30
2019-02-20T07:24:22.034Z,32.00
2019-02-20T07:27:49.271Z,30.70
2019-02-20T07:30:20.869Z,30.70
2019-02-20T07:32:52.397Z,31.17
2019-02-20T07:35:23.954Z,29.53
2019-02-20T07:37:55.682Z,28.47
2019-02-20T07:40:27.219Z,29.87
2019-02-20T07:42:58.884Z,28.27
2019-02-20T07:45:30.461Z,29.07
2019-02-20T07:48:02.111Z,31.10
2019-02-20T07:50:33.696Z,38.87
2019-02-20T07:53:05.444Z,29.90
2019-02-20T07:55:37.137Z,26.67
2019-02-20T07:58:08.722Z,29.67
2019-02-20T08:00:40.727Z,26.20
2019-02-20T08:03:13.321Z,26.53
2019-02-20T08:05:44.842Z,28.10
2019-02-20T08:08:18.528Z,21.57
2019-02-20T08:10:49.749Z,23.17
2019-02-20T08:13:21.348Z,26.23
2019-02-20T08:15:52.877Z,31.07
2019-02-20T08:18:24.502Z,28.10
2019-02-20T08:20:56.189Z,23.90
2019-02-20T08:23:27.907Z,22.27
2019-02-20T08:25:59.760Z,23.33
2019-02-20T08:28:31.509Z,23.97
2019-02-20T08:31:03.163Z,23.67
2019-02-20T08:33:35.501Z,24.83
2019-02-20T08:36:07.071Z,29.07
2019-02-20T08:38:38.574Z,21.77
2019-02-20T08:41:10.254Z,23.30
2019-02-20T08:43:46.223Z,20.67
2019-02-20T08:46:17.884Z,22.03
2019-02-20T08:48:49.456Z,15.60
2019-02-20T08:51:20.984Z,18.10
2019-02-20T08:53:52.436Z,16.47
2019-02-20T08:56:23.966Z,17.50
2019-02-20T08:58:55.584Z,11.07
2019-02-20T09:01:28.656Z,12.47
2019-02-20T09:04:00.236Z,15.70
2019-02-20T09:06:31.946Z,12.90
2019-02-20T09:09:04.906Z,14.33
2019-02-20T09:11:39.509Z,16.73
2019-02-20T09:14:11.257Z,13.33
2019-02-20T09:16:42.906Z,14.47
2019-02-20T09:19:15.861Z,14.90
2019-02-20T09:21:47.323Z,15.87
2019-02-20T09:24:18.882Z,14.80
2019-02-20T09:26:50.620Z,52.97
2019-02-20T09:29:22.385Z,29.73
2019-02-20T09:31:55.403Z,29.87
2019-02-20T09:34:27.823Z,20.73
2019-02-20T09:36:59.429Z,50.57
2019-02-20T09:39:40.851Z,27.60
2019-02-20T09:42:20.446Z,19.83
2019-02-20T09:44:52.420Z,17.10
2019-02-20T09:47:24.079Z,22.37
2019-02-20T09:49:55.678Z,21.87
2019-02-20T09:52:27.245Z,14.77
2019-02-20T09:54:59.770Z,10.83
2019-02-20T09:57:31.337Z,13.10
2019-02-20T10:00:02.815Z,13.10
2019-02-20T10:02:34.875Z,10.93
2019-02-20T10:05:07.985Z,10.73
2019-02-20T10:07:39.547Z,18.27
2019-02-20T10:10:11.284Z,17.97
2019-02-20T10:12:42.933Z,17.90
2019-02-20T10:15:14.966Z,20.77
2019-02-20T10:17:46.762Z,17.53
2019-02-20T10:20:19.414Z,16.53
2019-02-20T10:22:51.300Z,21.60
2019-02-20T10:25:24.066Z,20.13
2019-02-20T10:27:57.149Z,17.83
2019-02-20T10:30:28.711Z,22.27
2019-02-20T10:33:00.295Z,20.17
2019-02-20T10:35:31.934Z,20.53
2019-02-20T10:38:05.747Z,21.33
2019-02-20T10:40:37.307Z,27.27
2019-02-20T10:43:08.999Z,28.43
2019-02-20T10:45:40.669Z,29.30
2019-02-20T10:48:12.319Z,29.50
2019-02-20T10:50:43.877Z,27.27
2019-02-20T10:53:15.592Z,31.17
2019-02-20T10:55:47.150Z,24.20
2019-02-20T10:58:21.853Z,32.40
2019-02-20T11:00:53.470Z,31.00
2019-02-20T11:03:24.922Z,32.83
2019-02-20T11:05:57.891Z,35.20
2019-02-20T11:08:30.490Z,26.33
2019-02-20T11:11:02.403Z,36.37
2019-02-20T11:13:34.030Z,28.77
2019-02-20T11:16:05.821Z,30.93
2019-02-20T11:18:37.380Z,24.70
2019-02-20T11:21:09.037Z,28.37
2019-02-20T11:23:40.742Z,27.77
2019-02-20T11:26:17.887Z,29.73
2019-02-20T11:28:45.860Z,19.93
2019-02-20T11:31:17.387Z,50.50
2019-02-20T11:33:48.988Z,46.47
2019-02-20T11:36:20.652Z,31.47
2019-02-20T11:38:52.190Z,24.30
2019-02-20T11:41:23.889Z,28.57
2019-02-20T11:43:55.502Z,22.63
2019-02-20T11:46:27.065Z,52.30
2019-02-20T11:48:58.813Z,27.63
2019-02-20T11:51:30.528Z,26.83
2019-02-20T11:54:02.230Z,24.57
2019-02-20T11:56:33.718Z,29.43
2019-02-20T11:59:06.391Z,25.70
2019-02-20T12:01:38.007Z,25.63
2019-02-20T12:04:09.814Z,23.70
2019-02-20T12:06:41.495Z,23.00
2019-02-20T12:09:13.029Z,24.87
2019-02-20T12:11:44.721Z,19.60
2019-02-20T12:14:16.213Z,26.80
2019-02-20T12:16:47.781Z,22.40
2019-02-20T12:19:19.330Z,22.67
2019-02-20T12:21:50.900Z,25.27
2019-02-20T12:24:22.460Z,24.73
2019-02-20T12:26:54.057Z,24.13
2019-02-20T12:29:25.739Z,23.13
2019-02-20T12:31:57.421Z,26.13
2019-02-20T12:34:30.408Z,23.10
2019-02-20T12:37:04.835Z,25.37
2019-02-20T12:39:36.527Z,25.77
2019-02-20T12:42:09.421Z,24.57
2019-02-20T12:44:41.028Z,28.93
2019-02-20T12:47:12.608Z,30.53
2019-02-20T12:49:44.218Z,33.83
2019-02-20T12:52:15.891Z,24.33
2019-02-20T12:54:47.445Z,22.27
2019-02-20T12:57:19.102Z,22.23
2019-02-20T12:59:50.632Z,23.07
2019-02-20T13:02:22.299Z,27.30
2019-02-20T13:04:53.932Z,20.90
2019-02-20T13:07:27.469Z,27.47
2019-02-20T13:10:00.687Z,23.43
2019-02-20T13:12:32.426Z,21.53
2019-02-20T13:15:03.929Z,21.03
2019-02-20T13:17:35.612Z,23.40
2019-02-20T13:20:07.521Z,24.40
2019-02-20T13:22:39.123Z,21.43
2019-02-20T13:25:10.931Z,24.50
2019-02-20T13:27:44.996Z,23.90
2019-02-20T13:30:16.745Z,21.07
2019-02-20T13:32:48.238Z,22.70
2019-02-20T13:35:19.783Z,24.33
2019-02-20T13:37:51.556Z,24.93
2019-02-20T13:40:23.247Z,24.43
2019-02-20T13:42:54.841Z,19.70
2019-02-20T13:45:26.512Z,22.93
2019-02-20T13:47:58.311Z,20.63
2019-02-20T13:50:30.021Z,23.47
2019-02-20T13:53:01.791Z,20.20
2019-02-20T13:55:34.761Z,17.13
2019-02-20T13:58:06.705Z,22.80
2019-02-20T14:00:38.690Z,17.37
2019-02-20T14:03:10.582Z,16.43
2019-02-20T14:05:42.262Z,18.50
2019-02-20T14:08:14.001Z,19.37
2019-02-20T14:10:46.712Z,21.10
2019-02-20T14:13:18.474Z,17.60
2019-02-20T14:15:51.802Z,24.00
2019-02-20T14:18:23.604Z,22.70
2019-02-20T14:20:55.276Z,23.07
2019-02-20T14:23:26.987Z,23.03
2019-02-20T14:25:58.634Z,26.17
2019-02-20T14:28:30.425Z,23.07
2019-02-20T14:31:01.855Z,22.17
2019-02-20T14:33:33.536Z,22.07
2019-02-20T14:36:05.257Z,28.70
2019-02-20T14:38:36.951Z,23.73
2019-02-20T14:41:08.751Z,26.10
2019-02-20T14:43:40.367Z,23.87
2019-02-20T14:46:12.001Z,22.87
2019-02-20T14:48:44.769Z,30.40
2019-02-20T14:51:16.356Z,28.47
2019-02-20T14:53:48.146Z,29.87
2019-02-20T14:56:19.814Z,27.43
2019-02-20T14:58:51.571Z,26.90
2019-02-20T15:01:23.181Z,26.30
2019-02-20T15:03:54.956Z,35.57
2019-02-20T15:06:26.775Z,29.60
2019-02-20T15:08:58.282Z,32.63
2019-02-20T15:11:29.975Z,28.03
2019-02-20T15:14:01.530Z,29.53
2019-02-20T15:16:33.210Z,27.57
2019-02-20T15:19:04.697Z,29.27
2019-02-20T15:21:37.729Z,28.50
2019-02-20T15:24:09.376Z,27.50
2019-02-20T15:26:41.093Z,25.43
2019-02-20T15:29:12.555Z,28.60
2019-02-20T15:31:44.056Z,28.83
2019-02-20T15:34:15.606Z,26.43
2019-02-20T15:36:47.269Z,27.83
2019-02-20T15:39:18.889Z,27.07
2019-02-20T15:41:50.496Z,24.73
2019-02-20T15:44:22.922Z,32.47
2019-02-20T15:46:55.800Z,33.40
2019-02-20T15:49:27.377Z,24.87
2019-02-20T15:52:00.566Z,28.03
2019-02-20T15:54:32.085Z,29.47
2019-02-20T15:57:03.735Z,29.47
2019-02-20T15:59:35.803Z,30.97
2019-02-20T16:02:07.374Z,27.07
2019-02-20T16:04:38.941Z,44.47
2019-02-20T16:07:10.680Z,34.83
2019-02-20T16:09:42.326Z,37.50
2019-02-20T16:12:14.234Z,38.77
2019-02-20T16:14:45.933Z,37.10
2019-02-20T16:17:17.664Z,35.47
2019-02-20T16:19:49.274Z,32.63
2019-02-20T16:22:20.915Z,36.67
2019-02-20T16:24:52.964Z,27.83
2019-02-20T16:27:24.572Z,30.83
2019-02-20T16:29:56.151Z,28.83
2019-02-20T16:32:27.805Z,27.97
2019-02-20T16:34:59.454Z,30.83
2019-02-20T16:37:31.483Z,29.93
2019-02-20T16:40:03.208Z,31.50
2019-02-20T16:42:34.756Z,30.17
2019-02-20T16:45:10.460Z,27.43
2019-02-20T16:47:42.203Z,30.33
2019-02-20T16:50:14.253Z,31.00
2019-02-20T16:52:45.805Z,29.43
2019-02-20T16:55:22.578Z,33.20
2019-02-20T16:57:56.764Z,31.60
2019-02-20T17:00:24.722Z,31.57
2019-02-20T17:02:56.890Z,31.80
2019-02-20T17:05:28.494Z,30.87
2019-02-20T17:08:00.189Z,34.13
2019-02-20T17:10:31.912Z,33.37
2019-02-20T17:13:03.627Z,32.33
2019-02-20T17:15:35.882Z,30.40
2019-02-20T17:18:07.781Z,35.03
2019-02-20T17:20:39.683Z,36.10
2019-02-20T17:23:17.108Z,31.73
2019-02-20T17:25:48.799Z,37.60
2019-02-20T17:28:20.452Z,40.47
2019-02-20T17:30:53.331Z,32.00
2019-02-20T17:33:25.223Z,29.97
2019-02-20T17:35:56.872Z,29.53
2019-02-20T17:38:29.653Z,32.73
2019-02-20T17:41:01.434Z,33.47
2019-02-20T17:43:33.261Z,36.60
2019-02-20T17:46:05.123Z,42.77
2019-02-20T17:48:36.793Z,39.27
2019-02-20T17:51:09.820Z,43.23
2019-02-20T17:53:44.477Z,36.13
2019-02-20T17:56:16.220Z,34.70
2019-02-20T17:58:47.966Z,33.33
2019-02-20T18:01:19.653Z,38.93
2019-02-20T18:03:51.342Z,36.40
2019-02-20T18:06:23.022Z,42.80
2019-02-20T18:08:56.204Z,40.37
2019-02-20T18:11:27.917Z,38.03
2019-02-20T18:13:59.703Z,41.53
2019-02-20T18:16:32.642Z,40.93
2019-02-20T18:19:04.255Z,40.93
2019-02-20T18:21:36.045Z,38.83
2019-02-20T18:24:10.465Z,43.90
2019-02-20T18:26:42.169Z,50.77
2019-02-20T18:29:15.058Z,52.73
2019-02-20T18:31:47.566Z,52.37
2019-02-20T18:34:19.224Z,46.53
2019-02-20T18:36:50.845Z,63.93
2019-02-20T18:39:23.728Z,48.63
2019-02-20T18:41:55.305Z,48.77
2019-02-20T18:44:26.841Z,47.43
2019-02-20T18:46:58.445Z,52.00
2019-02-20T18:49:30.306Z,53.30
2019-02-20T18:52:01.926Z,47.17
2019-02-20T18:54:33.577Z,46.87
2019-02-20T18:57:05.078Z,51.10
2019-02-20T18:59:36.898Z,50.70
2019-02-20T19:02:09.205Z,48.77
2019-02-20T19:04:40.946Z,44.23
2019-02-20T19:07:14.131Z,42.27
2019-02-20T19:09:48.728Z,41.53
2019-02-20T19:12:46.732Z,45.70
2019-02-20T19:15:31.969Z,46.37
2019-02-20T19:19:04.486Z,41.33
2019-02-20T19:22:19.466Z,42.37
2019-02-20T19:25:53.217Z,42.13
2019-02-20T19:28:48.678Z,41.90
2019-02-20T19:32:11.184Z,46.70
2019-02-20T19:35:06.996Z,43.10
2019-02-20T19:38:24.881Z,47.53
2019-02-20T19:41:16.301Z,49.07
2019-02-20T19:44:24.691Z,47.73
2019-02-20T19:47:36.652Z,46.87
2019-02-20T19:50:27.380Z,46.30
2019-02-20T19:53:20.493Z,50.77
2019-02-20T19:56:21.139Z,43.20
2019-02-20T19:59:36.488Z,48.73
2019-02-20T20:02:45.345Z,62.63
2019-02-20T20:05:46.384Z,61.17
2019-02-20T20:08:57.159Z,65.20
2019-02-20T20:12:08.133Z,58.30
2019-02-20T20:15:41.263Z,55.37
2019-02-20T20:18:52.322Z,55.57
2019-02-20T20:22:00.383Z,56.73
2019-02-20T20:24:37.700Z,54.80
2019-02-20T20:27:44.072Z,54.20
2019-02-20T20:30:58.381Z,58.30
2019-02-20T20:33:55.923Z,49.40
2019-02-20T20:36:52.837Z,50.50
2019-02-20T20:39:59.564Z,47.47
2019-02-20T20:43:20.531Z,48.80
2019-02-20T20:46:32.373Z,44.70
2019-02-20T20:49:15.265Z,49.50
2019-02-20T20:52:39.365Z,44.03
2019-02-20T20:55:35.147Z,46.53
2019-02-20T20:58:30.830Z,40.73
2019-02-20T21:01:44.805Z,46.03
2019-02-20T21:04:54.889Z,45.60
2019-02-20T21:07:52.782Z,48.90
2019-02-20T21:11:06.638Z,49.17
2019-02-20T21:14:19.054Z,46.40
2019-02-20T21:17:32.713Z,54.30
2019-02-20T21:20:39.408Z,57.07
2019-02-20T21:23:38.468Z,54.77
2019-02-20T21:26:56.491Z,55.33
2019-02-20T21:29:51.088Z,57.47
2019-02-20T21:33:17.297Z,61.40
2019-02-20T21:36:08.605Z,53.37
2019-02-20T21:39:10.347Z,60.10
2019-02-20T21:42:02.079Z,54.37
2019-02-20T21:44:53.210Z,57.13
2019-02-20T21:48:03.564Z,57.47
2019-02-20T21:51:10.217Z,49.80
2019-02-20T21:54:09.131Z,88.80
2019-02-20T21:57:04.415Z,83.23
2019-02-20T22:00:02.205Z,126.33
2019-02-20T22:03:12.835Z,60.97
2019-02-20T22:05:58.485Z,49.27
2019-02-20T22:09:08.542Z,62.70
2019-02-20T22:12:09.793Z,51.13
2019-02-20T22:15:03.763Z,55.60
2019-02-20T22:17:57.289Z,66.30
2019-02-20T22:21:03.105Z,51.43
2019-02-20T22:23:57.809Z,55.20
2019-02-20T22:26:58.432Z,56.00
2019-02-20T22:29:53.147Z,51.40
2019-02-20T22:32:44.217Z,49.47
2019-02-20T22:35:46.612Z,55.43
2019-02-20T22:38:48.276Z,51.27
2019-02-20T22:42:13.271Z,56.30
2019-02-20T22:45:27.409Z,52.57
2019-02-20T22:48:35.573Z,53.13
2019-02-20T22:51:43.921Z,53.27
2019-02-20T22:55:20.125Z,52.30
2019-02-20T22:58:20.633Z,56.13
2019-02-20T23:01:39.615Z,52.60
2019-02-20T23:05:06.241Z,49.07
2019-02-20T23:08:20.845Z,51.13
2019-02-20T23:11:32.408Z,53.70
2019-02-20T23:14:40.071Z,51.70
2019-02-20T23:17:11.699Z,53.57
2019-02-20T23:19:45.016Z,52.13
2019-02-20T23:22:16.777Z,58.80
2019-02-20T23:24:48.378Z,49.73
2019-02-20T23:27:21.452Z,63.23
2019-02-20T23:29:53.104Z,56.87
2019-02-20T23:32:24.856Z,55.63
2019-02-20T23:34:56.597Z,52.83
2019-02-20T23:37:28.294Z,53.83
2019-02-20T23:39:59.947Z,56.33
2019-02-20T23:42:31.648Z,58.37
2019-02-20T23:45:03.240Z,58.93
2019-02-20T23:47:34.842Z,58.70
2019-02-20T23:50:06.610Z,60.23
2019-02-20T23:52:38.109Z,63.27
2019-02-20T23:55:09.900Z,60.67
2019-02-20T23:57:41.482Z,63.47
